Time;durP1;ratioP1;P1;durP2;ratioP2;P2;SDS_P1;SDS_P2;PMS_P1;PMS_P2;Temp;Humidity;BMP_temperature;BMP_pressure;BME280_temperature;BME280_humidity;BME280_pressure;Samples;Min_cycle;Max_cycle;Signal;HPM_P1;HPM_P2
2024/04/05 00:01:32;;;;;;;7.75;4.75;;;23.10;99.90;;;;;;5033429;28;20429;-44
2024/04/05 00:04:03;;;;;;;7.50;4.50;;;23.10;99.90;;;;;;5033661;28;20443;-44
2024/04/05 00:06:29;;;;;;;6.00;4.43;;;23.10;99.90;;;;;;5033305;28;20060;-45
2024/04/05 00:08:55;;;;;;;5.18;4.03;;;23.10;99.90;;;;;;5032738;28;20072;-44
2024/04/05 00:11:21;;;;;;;5.45;4.78;;;23.10;99.90;;;;;;5032583;28;20026;-44
2024/04/05 00:13:47;;;;;;;8.20;5.07;;;23.00;99.90;;;;;;5033627;28;20108;-44
2024/04/05 00:16:12;;;;;;;6.28;4.82;;;23.00;99.90;;;;;;5033697;28;20393;-44
2024/04/05 00:18:38;;;;;;;5.38;4.55;;;23.00;99.90;;;;;;5033858;28;20468;-45
2024/04/05 00:21:05;;;;;;;5.63;4.35;;;23.00;99.90;;;;;;5033506;28;20029;-45
2024/04/05 00:23:31;;;;;;;6.53;4.70;;;23.00;99.90;;;;;;5033491;28;20044;-44
2024/04/05 00:26:02;;;;;;;7.33;4.97;;;23.00;99.90;;;;;;5033429;28;20037;-45
2024/04/05 00:28:28;;;;;;;6.03;4.25;;;23.00;99.90;;;;;;5033522;28;20274;-45
2024/04/05 00:30:55;;;;;;;7.78;5.63;;;23.00;99.90;;;;;;5015504;28;20108;-45
2024/04/05 00:33:21;;;;;;;6.00;5.25;;;23.00;99.90;;;;;;5033222;28;20022;-44
2024/04/05 00:35:56;;;;;;;7.43;5.40;;;23.00;99.90;;;;;;5033206;28;20087;-44
2024/04/05 00:38:25;;;;;;;6.72;5.10;;;23.00;99.90;;;;;;5033096;28;20428;-44
2024/04/05 00:40:52;;;;;;;7.32;5.25;;;23.00;99.90;;;;;;5033356;28;20100;-44
2024/04/05 00:43:18;;;;;;;7.32;5.28;;;22.90;99.90;;;;;;5032989;28;20041;-45
2024/04/05 00:45:46;;;;;;;9.75;6.72;;;22.90;99.90;;;;;;5033212;28;20024;-44
2024/04/05 00:48:18;;;;;;;8.25;6.75;;;22.90;99.90;;;;;;5032133;28;20065;-44
2024/04/05 00:50:45;;;;;;;8.30;5.90;;;22.90;99.90;;;;;;5032890;28;20037;-45
2024/04/05 00:53:32;;;;;;;8.43;5.32;;;22.90;99.90;;;;;;5033313;28;20358;-44
2024/04/05 00:56:00;;;;;;;7.20;4.85;;;22.90;99.90;;;;;;5032986;28;20115;-45
2024/04/05 00:58:26;;;;;;;8.18;6.20;;;22.90;99.90;;;;;;5032793;28;20389;-46
2024/04/05 01:00:53;;;;;;;9.63;5.97;;;22.90;99.90;;;;;;5033217;28;20105;-44
2024/04/05 01:03:19;;;;;;;10.25;6.40;;;22.90;99.90;;;;;;5032818;28;20036;-46
2024/04/05 01:05:46;;;;;;;8.10;6.57;;;22.80;99.90;;;;;;5032837;28;20021;-45
2024/04/05 01:08:14;;;;;;;8.25;6.15;;;22.90;99.90;;;;;;5033008;28;20084;-45
2024/04/05 01:10:43;;;;;;;6.97;6.05;;;22.80;99.90;;;;;;5032838;28;20073;-44
2024/04/05 01:13:13;;;;;;;9.05;6.50;;;22.80;99.90;;;;;;5032778;28;20463;-44
2024/04/05 01:15:40;;;;;;;8.65;6.47;;;22.80;99.90;;;;;;5015234;28;20033;-44
2024/04/05 01:18:07;;;;;;;8.63;6.70;;;22.80;99.90;;;;;;5032579;28;20096;-45
2024/04/05 01:20:34;;;;;;;;;;;22.80;99.90;;;;;;5015316;28;20034;-45
2024/04/05 01:23:04;;;;;;;9.98;7.70;;;22.80;99.90;;;;;;5014768;28;19905;-45
2024/04/05 01:25:31;;;;;;;11.18;7.10;;;22.80;99.90;;;;;;5032410;28;20041;-44
2024/04/05 01:27:58;;;;;;;10.07;7.90;;;22.80;99.90;;;;;;5032538;28;20066;-45
2024/04/05 01:30:25;;;;;;;9.05;7.10;;;22.80;99.90;;;;;;5032315;28;20506;-45
2024/04/05 01:32:58;;;;;;;11.23;7.80;;;22.80;99.90;;;;;;5032289;28;20033;-44
2024/04/05 01:35:24;;;;;;;9.82;7.18;;;22.70;99.90;;;;;;5014600;28;20492;-45
2024/04/05 01:37:50;;;;;;;8.35;6.72;;;22.70;99.90;;;;;;5032409;28;20021;-44
2024/04/05 01:40:16;;;;;;;9.57;7.18;;;22.70;99.90;;;;;;5032184;28;20045;-44
2024/04/05 01:42:42;;;;;;;9.55;7.07;;;22.70;99.90;;;;;;5032428;28;20024;-44
2024/04/05 01:45:08;;;;;;;8.52;6.60;;;22.70;99.90;;;;;;5032258;28;20400;-44
2024/04/05 01:47:34;;;;;;;9.63;7.28;;;22.70;99.90;;;;;;5031874;28;20064;-44
2024/04/05 01:50:01;;;;;;;8.68;6.75;;;22.70;99.90;;;;;;5014427;28;20037;-44
2024/04/05 01:52:27;;;;;;;9.48;7.07;;;22.70;99.90;;;;;;5032145;28;20112;-44
2024/04/05 01:54:54;;;;;;;9.48;7.00;;;22.60;99.90;;;;;;5032179;28;20108;-44
2024/04/05 01:57:20;;;;;;;10.02;7.20;;;22.60;99.90;;;;;;5014278;28;20022;-44
2024/04/05 01:59:49;;;;;;;8.98;6.72;;;22.60;99.90;;;;;;5031825;28;20104;-45
2024/04/05 02:02:15;;;;;;;8.80;6.50;;;22.70;99.90;;;;;;5012572;23;20096;-55
2024/04/05 02:04:41;;;;;;;10.10;7.60;;;22.60;99.90;;;;;;4992853;28;20062;-55
2024/04/05 02:07:07;;;;;;;9.63;6.88;;;22.60;99.90;;;;;;4992658;28;20026;-56
2024/04/05 02:09:33;;;;;;;8.80;7.30;;;22.60;99.90;;;;;;4992521;28;20104;-56
2024/04/05 02:12:01;;;;;;;11.00;7.50;;;22.60;99.90;;;;;;4992391;28;20100;-56
2024/04/05 02:14:27;;;;;;;9.27;6.82;;;22.60;99.90;;;;;;4992636;28;20049;-56
2024/04/05 02:16:58;;;;;;;10.32;7.40;;;22.60;99.90;;;;;;4992578;28;20069;-57
2024/04/05 02:19:24;;;;;;;11.55;7.40;;;22.60;99.90;;;;;;4992968;28;20466;-57
2024/04/05 02:21:50;;;;;;;8.68;6.70;;;22.60;99.90;;;;;;4992441;28;20042;-57
2024/04/05 02:24:16;;;;;;;8.65;6.72;;;22.50;99.90;;;;;;4992579;28;20367;-57
2024/04/05 02:26:42;;;;;;;8.23;6.82;;;22.50;99.90;;;;;;4992576;28;20026;-56
2024/04/05 02:29:08;;;;;;;9.68;6.88;;;22.50;99.90;;;;;;4992028;28;20026;-56
2024/04/05 02:31:34;;;;;;;10.40;6.93;;;22.50;99.90;;;;;;4991845;28;20053;-56
2024/04/05 02:34:02;;;;;;;8.18;6.68;;;22.50;99.90;;;;;;4992240;28;20026;-56
2024/04/05 02:36:28;;;;;;;9.20;6.60;;;22.50;99.90;;;;;;4992156;28;20449;-57
2024/04/05 02:38:54;;;;;;;8.48;6.50;;;22.50;99.90;;;;;;4992166;28;20023;-56
2024/04/05 02:41:20;;;;;;;8.93;6.90;;;22.50;99.90;;;;;;4992248;28;20041;-56
2024/04/05 02:43:45;;;;;;;7.93;6.57;;;22.50;99.90;;;;;;4992658;28;20483;-56
2024/04/05 02:46:11;;;;;;;8.98;7.22;;;22.50;99.90;;;;;;4992318;28;20374;-56
2024/04/05 02:48:37;;;;;;;9.15;6.88;;;22.50;99.90;;;;;;4991992;28;20388;-57
2024/04/05 02:51:03;;;;;;;8.60;6.75;;;22.50;99.90;;;;;;4992076;28;20040;-56
2024/04/05 02:53:29;;;;;;;8.85;6.38;;;22.50;99.90;;;;;;4974765;28;20018;-57
2024/04/05 02:55:55;;;;;;;8.52;6.53;;;22.40;99.90;;;;;;4992312;28;20026;-57
2024/04/05 02:58:20;;;;;;;7.60;6.15;;;22.40;99.90;;;;;;4974748;28;20521;-57
2024/04/05 03:00:48;;;;;;;9.15;6.45;;;22.40;99.90;;;;;;4967738;23;20053;-45
2024/04/05 03:03:14;;;;;;;8.73;6.25;;;22.40;99.90;;;;;;4955506;28;20039;-45
2024/04/05 03:05:40;;;;;;;7.88;6.07;;;22.40;99.90;;;;;;4955612;28;20022;-44
2024/04/05 03:08:06;;;;;;;9.52;6.15;;;22.40;99.90;;;;;;4972790;28;20091;-44
2024/04/05 03:10:32;;;;;;;8.20;6.55;;;22.40;99.90;;;;;;4955179;28;20039;-43
2024/04/05 03:12:58;;;;;;;8.32;6.38;;;22.40;99.90;;;;;;4976175;28;20031;-43
2024/04/05 03:15:24;;;;;;;7.63;6.30;;;22.40;99.90;;;;;;4976229;28;20035;-44
2024/04/05 03:17:50;;;;;;;8.57;6.60;;;22.40;99.90;;;;;;4976154;28;20019;-44
2024/04/05 03:20:15;;;;;;;7.80;5.88;;;22.40;99.90;;;;;;4976298;28;20075;-44
2024/04/05 03:22:42;;;;;;;9.43;6.22;;;22.40;99.90;;;;;;4975714;28;20023;-44
2024/04/05 03:25:08;;;;;;;7.82;6.13;;;22.40;99.90;;;;;;4975923;28;20507;-44
2024/04/05 03:27:37;;;;;;;7.95;5.80;;;22.40;99.90;;;;;;4976009;28;20031;-44
2024/04/05 03:30:03;;;;;;;7.72;6.03;;;22.40;99.90;;;;;;4975926;28;20027;-43
2024/04/05 03:32:30;;;;;;;5.80;4.85;;;22.30;99.90;;;;;;4975944;28;20050;-44
2024/04/05 03:34:56;;;;;;;5.95;5.22;;;22.30;99.90;;;;;;4975666;28;20050;-44
2024/04/05 03:37:22;;;;;;;8.00;6.05;;;22.30;99.90;;;;;;4975696;28;20471;-44
2024/04/05 03:39:52;;;;;;;7.00;5.68;;;22.30;99.90;;;;;;4975827;28;20427;-43
2024/04/05 03:42:19;;;;;;;6.65;5.18;;;22.30;99.90;;;;;;4975839;28;20030;-44
2024/04/05 03:44:46;;;;;;;7.65;5.53;;;22.30;99.90;;;;;;4975783;28;20022;-44
2024/04/05 03:47:12;;;;;;;6.95;5.32;;;22.30;99.90;;;;;;4975649;28;20130;-45
2024/04/05 03:49:38;;;;;;;6.90;4.95;;;22.30;99.90;;;;;;4975416;28;20140;-44
2024/04/05 03:52:04;;;;;;;6.95;5.28;;;22.30;99.90;;;;;;4975416;28;20031;-44
2024/04/05 03:54:30;;;;;;;9.95;6.13;;;22.30;99.90;;;;;;4975555;28;20047;-44
2024/04/05 03:56:56;;;;;;;8.43;5.60;;;22.30;99.90;;;;;;4975316;28;20030;-44
2024/04/05 03:59:22;;;;;;;7.78;5.20;;;22.30;99.90;;;;;;4975234;28;20459;-45
2024/04/05 04:01:51;;;;;;;7.18;5.20;;;22.30;99.90;;;;;;4975842;28;20168;-44
2024/04/05 04:04:17;;;;;;;6.40;4.75;;;22.30;99.90;;;;;;4942210;28;20062;-44
2024/04/05 04:06:44;;;;;;;7.13;5.30;;;22.20;99.90;;;;;;4975159;28;20027;-44
2024/04/05 04:09:11;;;;;;;7.00;5.85;;;22.20;99.90;;;;;;4975222;28;20019;-45
2024/04/05 04:11:40;;;;;;;7.93;5.50;;;22.20;99.90;;;;;;4975087;28;20023;-44
2024/04/05 04:14:05;;;;;;;7.00;5.18;;;22.20;99.90;;;;;;4974965;28;20118;-44
2024/04/05 04:16:31;;;;;;;7.55;5.65;;;22.20;99.90;;;;;;4975117;28;20109;-45
2024/04/05 04:18:57;;;;;;;7.05;5.50;;;22.20;99.90;;;;;;4957862;28;20499;-44
2024/04/05 04:21:24;;;;;;;8.63;6.18;;;22.20;99.90;;;;;;4975021;28;20022;-45
2024/04/05 04:23:51;;;;;;;6.65;5.32;;;22.20;99.90;;;;;;4956624;28;20026;-44
2024/04/05 04:26:17;;;;;;;6.60;4.82;;;22.20;99.90;;;;;;4957755;28;20073;-45
2024/04/05 04:28:44;;;;;;;8.23;6.07;;;22.20;99.90;;;;;;4974761;28;20035;-45
2024/04/05 04:31:23;;;;;;;8.20;5.90;;;22.20;99.90;;;;;;4974696;28;20041;-44
2024/04/05 04:33:52;;;;;;;7.82;5.40;;;22.20;99.90;;;;;;4975021;28;20077;-45
2024/04/05 04:36:22;;;;;;;6.78;5.00;;;22.20;99.90;;;;;;4974930;28;20042;-45
2024/04/05 04:38:49;;;;;;;7.55;5.55;;;22.20;99.90;;;;;;4975172;28;20379;-44
2024/04/05 04:41:16;;;;;;;8.55;6.03;;;22.20;99.90;;;;;;4957438;28;20034;-44
2024/04/05 04:43:44;;;;;;;7.03;5.57;;;22.10;99.90;;;;;;4974734;28;20042;-45
2024/04/05 04:46:11;;;;;;;6.20;4.82;;;22.20;99.90;;;;;;4974391;28;20015;-44
2024/04/05 04:48:38;;;;;;;6.63;5.20;;;22.20;99.90;;;;;;4957265;28;20474;-44
2024/04/05 04:51:04;;;;;;;6.13;4.65;;;22.20;99.90;;;;;;4974451;28;20035;-44
2024/04/05 04:53:30;;;;;;;6.65;5.20;;;22.10;99.90;;;;;;4974494;28;20031;-45
2024/04/05 04:55:56;;;;;;;6.82;5.55;;;22.10;99.90;;;;;;4974365;28;20379;-45
2024/04/05 04:58:23;;;;;;;6.90;4.90;;;22.10;99.90;;;;;;4957212;28;20077;-45
2024/04/05 05:00:49;;;;;;;6.60;5.05;;;22.10;99.90;;;;;;4970654;28;20039;-44
2024/04/05 05:03:15;;;;;;;6.75;4.93;;;22.10;99.90;;;;;;4955493;28;20061;-45
2024/04/05 05:05:42;;;;;;;7.60;5.43;;;22.10;99.90;;;;;;4954064;29;20035;-43
2024/04/05 05:08:13;;;;;;;6.28;4.80;;;22.10;99.90;;;;;;4952999;29;20030;-44
2024/04/05 05:10:40;;;;;;;7.43;4.97;;;22.10;99.90;;;;;;4953781;29;20134;-44
2024/04/05 05:13:06;;;;;;;6.90;4.85;;;22.10;99.90;;;;;;4954764;29;20019;-44
2024/04/05 05:15:32;;;;;;;6.00;5.00;;;22.10;99.90;;;;;;4954627;29;20503;-45
2024/04/05 05:17:58;;;;;;;5.88;5.03;;;22.10;99.90;;;;;;4937566;29;20687;-44
2024/04/05 05:20:26;;;;;;;6.90;4.97;;;22.10;99.90;;;;;;4954966;29;20031;-45
2024/04/05 05:22:53;;;;;;;6.90;4.55;;;22.10;99.90;;;;;;4954834;29;20015;-45
2024/04/05 05:25:19;;;;;;;5.72;4.75;;;22.10;99.90;;;;;;4954663;29;20031;-45
2024/04/05 05:27:45;;;;;;;6.57;5.43;;;22.10;99.90;;;;;;4954435;29;20038;-45
2024/04/05 05:30:11;;;;;;;6.60;4.63;;;22.10;99.90;;;;;;4954442;29;20535;-45
2024/04/05 05:32:37;;;;;;;6.20;4.53;;;22.10;99.90;;;;;;4954353;29;20024;-45
2024/04/05 05:35:05;;;;;;;5.38;4.50;;;22.00;99.90;;;;;;4954061;28;20038;-45
2024/04/05 05:37:31;;;;;;;7.68;4.32;;;22.00;99.90;;;;;;4954335;29;20026;-44
2024/04/05 05:39:57;;;;;;;7.07;4.75;;;22.10;99.90;;;;;;4954382;29;20023;-44
2024/04/05 05:42:23;;;;;;;5.93;4.57;;;22.00;99.90;;;;;;4954479;29;20019;-44
2024/04/05 05:44:49;;;;;;;6.53;4.28;;;22.00;99.90;;;;;;4954303;29;20038;-45
2024/04/05 05:47:16;;;;;;;6.57;4.05;;;22.00;99.90;;;;;;4954354;29;20055;-45
2024/04/05 05:49:42;;;;;;;8.43;4.28;;;22.00;99.90;;;;;;4954213;29;20071;-45
2024/04/05 05:52:09;;;;;;;8.10;4.75;;;22.00;99.90;;;;;;4954278;29;20483;-44
2024/04/05 05:54:35;;;;;;;7.10;4.43;;;22.00;99.90;;;;;;4954165;29;20023;-44
2024/04/05 05:57:02;;;;;;;5.05;3.95;;;22.00;99.90;;;;;;4954006;29;20027;-47
2024/04/05 05:59:30;;;;;;;6.65;4.30;;;22.00;99.90;;;;;;4954081;29;20027;-44
2024/04/05 06:01:56;;;;;;;6.45;4.15;;;22.00;99.90;;;;;;4954361;29;20119;-45
2024/04/05 06:04:21;;;;;;;7.63;4.07;;;22.00;99.90;;;;;;4954079;29;20118;-45
2024/04/05 06:06:47;;;;;;;5.70;3.45;;;22.00;99.90;;;;;;4954017;29;20524;-44
2024/04/05 06:09:14;;;;;;;5.63;4.10;;;22.00;99.90;;;;;;4936749;29;20034;-44
2024/04/05 06:11:40;;;;;;;5.85;3.97;;;22.00;99.90;;;;;;4953985;29;20028;-44
2024/04/05 06:14:06;;;;;;;6.60;4.10;;;22.00;99.90;;;;;;4954124;29;20106;-45
2024/04/05 06:16:32;;;;;;;5.72;3.85;;;21.90;99.90;;;;;;4954178;29;20027;-45
2024/04/05 06:18:58;;;;;;;5.63;3.97;;;21.90;99.90;;;;;;4954182;29;20353;-44
2024/04/05 06:21:24;;;;;;;5.32;3.80;;;21.90;99.90;;;;;;4954114;29;20035;-44
2024/04/05 06:23:50;;;;;;;5.57;3.63;;;21.90;99.90;;;;;;4953906;29;20027;-44
2024/04/05 06:26:15;;;;;;;6.53;4.03;;;21.90;99.90;;;;;;4953797;29;20034;-44
2024/04/05 06:28:41;;;;;;;6.45;4.38;;;21.90;99.90;;;;;;4954012;29;20035;-44
2024/04/05 06:31:07;;;;;;;5.47;3.90;;;21.90;99.90;;;;;;4953779;29;20035;-45
2024/04/05 06:33:33;;;;;;;5.95;4.10;;;21.90;99.90;;;;;;4953902;29;20159;-45
2024/04/05 06:36:00;;;;;;;6.18;3.53;;;21.90;99.90;;;;;;4953944;29;20027;-43
2024/04/05 06:38:26;;;;;;;9.88;3.83;;;21.90;99.90;;;;;;4953985;29;20162;-44
2024/04/05 06:40:56;;;;;;;7.32;4.93;;;21.90;99.90;;;;;;4936582;29;20031;-44
2024/04/05 06:43:22;;;;;;;6.50;4.47;;;21.90;99.90;;;;;;4953894;29;20038;-45
2024/04/05 06:45:57;;;;;;;7.82;4.05;;;21.90;99.90;;;;;;4954026;28;20086;-45
2024/04/05 06:48:23;;;;;;;5.75;3.78;;;21.90;99.90;;;;;;4957463;29;20055;-45
2024/04/05 06:50:50;;;;;;;8.27;4.22;;;21.90;99.90;;;;;;4957192;29;20039;-45
2024/04/05 06:53:21;;;;;;;6.40;4.47;;;21.90;99.90;;;;;;4957182;29;20107;-44
2024/04/05 06:55:50;;;;;;;5.22;4.00;;;21.90;99.90;;;;;;4957223;29;20266;-44
2024/04/05 06:58:19;;;;;;;5.50;3.92;;;21.90;99.90;;;;;;4957366;29;20106;-44
2024/04/05 07:00:45;;;;;;;8.93;5.10;;;21.90;99.90;;;;;;4956999;29;20023;-44
2024/04/05 07:03:12;;;;;;;6.38;4.00;;;21.90;99.90;;;;;;4957110;29;20038;-44
2024/04/05 07:05:39;;;;;;;6.70;3.60;;;21.90;99.90;;;;;;4957014;29;20079;-44
2024/04/05 07:08:06;;;;;;;7.55;4.00;;;21.90;99.90;;;;;;4957117;29;20046;-44
2024/04/05 07:10:33;;;;;;;5.93;3.85;;;21.90;99.90;;;;;;4940329;29;20035;-45
2024/04/05 07:12:59;;;;;;;4.30;3.10;;;21.90;99.90;;;;;;4957021;29;20115;-44
2024/04/05 07:15:25;;;;;;;5.95;4.45;;;21.90;99.90;;;;;;4956866;29;20023;-44
2024/04/05 07:17:52;;;;;;;7.45;4.20;;;21.90;99.90;;;;;;4956772;29;20051;-44
2024/04/05 07:20:24;;;;;;;6.20;3.55;;;21.90;99.90;;;;;;4956814;29;20023;-43
2024/04/05 07:22:54;;;;;;;4.78;3.53;;;21.90;99.90;;;;;;4956806;29;20039;-44
2024/04/05 07:25:23;;;;;;;6.30;3.70;;;21.90;99.90;;;;;;4956792;29;20024;-43
2024/04/05 07:27:51;;;;;;;4.82;3.42;;;21.90;99.90;;;;;;4956673;29;20027;-43
2024/04/05 07:30:18;;;;;;;6.38;4.05;;;21.90;99.90;;;;;;4956602;29;20118;-44
2024/04/05 07:32:44;;;;;;;5.13;3.78;;;21.90;99.90;;;;;;4956599;29;20440;-44
2024/04/05 07:35:10;;;;;;;6.20;4.38;;;21.90;99.90;;;;;;4956561;29;20063;-45
2024/04/05 07:37:36;;;;;;;4.43;3.80;;;21.90;99.90;;;;;;4956513;29;20053;-44
2024/04/05 07:40:01;;;;;;;5.53;3.90;;;21.90;99.90;;;;;;4956716;29;20047;-44
2024/04/05 07:42:29;;;;;;;4.45;3.28;;;21.90;99.90;;;;;;4956746;29;20027;-45
2024/04/05 07:44:56;;;;;;;8.00;3.42;;;21.90;99.90;;;;;;4956507;29;20024;-44
2024/04/05 07:47:22;;;;;;;5.22;3.97;;;21.90;99.90;;;;;;4956452;29;20439;-45
2024/04/05 07:49:52;;;;;;;4.78;3.50;;;21.90;99.90;;;;;;4939188;29;20094;-45
2024/04/05 07:52:20;;;;;;;4.97;3.60;;;21.90;99.90;;;;;;4923256;29;20029;-44
2024/04/05 07:54:47;;;;;;;5.63;4.43;;;21.90;99.90;;;;;;4956196;29;20023;-44
2024/04/05 07:57:13;;;;;;;6.25;3.90;;;21.90;99.90;;;;;;4955713;28;20027;-43
2024/04/05 07:59:39;;;;;;;4.38;3.15;;;21.90;99.90;;;;;;4955959;29;20091;-43
2024/04/05 08:02:06;;;;;;;6.28;4.03;;;21.90;99.90;;;;;;4956003;29;20043;-44
2024/04/05 08:04:33;;;;;;;7.03;3.40;;;21.90;99.90;;;;;;4938954;29;20026;-44
2024/04/05 08:07:00;;;;;;;4.78;3.40;;;21.90;99.90;;;;;;4956011;29;20023;-44
2024/04/05 08:09:26;;;;;;;6.80;3.80;;;21.90;99.90;;;;;;4956002;29;20019;-45
2024/04/05 08:11:52;;;;;;;4.00;3.20;;;21.90;99.90;;;;;;4955753;29;20035;-44
2024/04/05 08:14:18;;;;;;;5.20;3.38;;;21.90;99.90;;;;;;4955656;29;20394;-44
2024/04/05 08:16:43;;;;;;;4.70;3.22;;;21.90;99.90;;;;;;4938695;29;20031;-43
2024/04/05 08:19:09;;;;;;;5.32;3.90;;;21.90;99.90;;;;;;4955888;29;20019;-44
2024/04/05 08:21:35;;;;;;;7.32;4.70;;;21.90;99.90;;;;;;4955949;29;20019;-43
2024/04/05 08:24:02;;;;;;;5.45;4.13;;;21.90;99.90;;;;;;4955870;29;20467;-44
2024/04/05 08:26:27;;;;;;;5.85;4.07;;;21.90;99.90;;;;;;4955754;29;20062;-44
2024/04/05 08:28:53;;;;;;;8.02;4.45;;;21.90;99.90;;;;;;4955663;29;20535;-44
2024/04/05 08:31:19;;;;;;;7.88;4.53;;;21.90;99.90;;;;;;4955297;29;20039;-45
2024/04/05 08:33:45;;;;;;;6.00;3.90;;;21.90;99.90;;;;;;4955455;29;20058;-45
2024/04/05 08:36:10;;;;;;;6.97;4.55;;;21.90;99.90;;;;;;4938220;29;20464;-44
2024/04/05 08:38:36;;;;;;;7.10;4.80;;;21.90;99.90;;;;;;4955259;29;20440;-46
2024/04/05 08:41:11;;;;;;;7.00;4.22;;;22.00;99.90;;;;;;4955602;29;20074;-45
2024/04/05 08:43:43;;;;;;;6.55;4.35;;;22.00;99.90;;;;;;4937941;29;20039;-45
2024/04/05 08:46:08;;;;;;;9.55;5.03;;;22.00;99.90;;;;;;4955316;29;20020;-45
2024/04/05 08:48:35;;;;;;;5.63;4.22;;;22.00;99.90;;;;;;4955339;29;20037;-45
2024/04/05 08:51:02;;;;;;;6.85;4.85;;;22.00;99.90;;;;;;4954996;29;20062;-45
2024/04/05 08:53:29;;;;;;;8.25;4.95;;;22.00;99.90;;;;;;4955205;29;20033;-45
2024/04/05 08:55:59;;;;;;;7.25;4.60;;;22.00;99.90;;;;;;4954996;29;20035;-45
2024/04/05 08:58:26;;;;;;;8.98;4.68;;;22.00;99.90;;;;;;4954985;29;20027;-44
2024/04/05 09:00:53;;;;;;;9.93;5.30;;;22.00;99.90;;;;;;4954924;29;20400;-45
2024/04/05 09:03:19;;;;;;;6.80;4.65;;;22.00;99.90;;;;;;4937899;29;20387;-45
2024/04/05 09:05:45;;;;;;;8.00;4.32;;;22.00;99.90;;;;;;4954785;29;20031;-45
2024/04/05 09:08:11;;;;;;;6.55;4.78;;;22.00;99.90;;;;;;4954603;28;20082;-44
2024/04/05 09:10:36;;;;;;;7.40;5.00;;;22.00;99.90;;;;;;4954579;29;20027;-45
2024/04/05 09:13:06;;;;;;;10.00;4.75;;;22.00;99.90;;;;;;4937681;29;20054;-44
2024/04/05 09:15:33;;;;;;;9.48;4.70;;;22.00;99.90;;;;;;4954856;29;20460;-45
2024/04/05 09:17:58;;;;;;;8.90;4.88;;;22.00;99.90;;;;;;4954674;29;20035;-45
2024/04/05 09:20:29;;;;;;;8.10;4.70;;;22.00;99.90;;;;;;4954597;29;20034;-44
2024/04/05 09:23:08;;;;;;;8.77;5.05;;;22.00;99.90;;;;;;4954554;29;20034;-43
2024/04/05 09:25:40;;;;;;;7.80;4.97;;;22.00;99.90;;;;;;4954735;29;20051;-45
2024/04/05 09:28:12;;;;;;;8.15;4.93;;;22.10;99.90;;;;;;4937390;29;20490;-44
2024/04/05 09:30:37;;;;;;;8.15;4.60;;;22.10;99.90;;;;;;4954544;29;20039;-45
2024/04/05 09:33:03;;;;;;;9.77;5.00;;;22.10;99.90;;;;;;4937418;29;20513;-45
2024/04/05 09:35:30;;;;;;;8.40;4.70;;;22.10;99.90;;;;;;4954457;29;20059;-44
2024/04/05 09:37:58;;;;;;;8.00;5.28;;;22.10;99.90;;;;;;4954443;29;20096;-45
2024/04/05 09:40:23;;;;;;;7.60;4.38;;;22.10;99.90;;;;;;4937129;29;20070;-44
2024/04/05 09:42:53;;;;;;;7.78;4.50;;;22.10;99.90;;;;;;4954367;29;20055;-44
2024/04/05 09:45:21;;;;;;;9.18;5.30;;;22.10;99.90;;;;;;4954314;29;20032;-44
2024/04/05 09:47:48;;;;;;;9.05;4.55;;;22.20;99.90;;;;;;4954064;29;20019;-44
2024/04/05 09:50:14;;;;;;;6.28;4.45;;;22.10;99.90;;;;;;4936883;29;20031;-44
2024/04/05 09:52:43;;;;;;;8.52;4.63;;;22.10;99.90;;;;;;4954083;29;20028;-44
2024/04/05 09:55:12;;;;;;;10.30;5.35;;;22.20;99.90;;;;;;4954385;29;20026;-44
2024/04/05 09:57:39;;;;;;;7.68;4.68;;;22.20;99.90;;;;;;4954508;29;20333;-44
2024/04/05 10:00:14;;;;;;;6.70;5.13;;;22.20;99.90;;;;;;4954197;29;20026;-44
2024/04/05 10:02:48;;;;;;;9.02;5.32;;;22.20;99.90;;;;;;4951346;29;20498;-44
2024/04/05 10:05:29;;;;;;;9.10;5.25;;;22.20;99.90;;;;;;4954288;29;20035;-44
2024/04/05 10:07:56;;;;;;;8.88;5.47;;;22.20;99.90;;;;;;4953970;29;20030;-45
2024/04/05 10:10:34;;;;;;;9.07;5.00;;;22.30;99.90;;;;;;4953735;29;20031;-44
2024/04/05 10:13:10;;;;;;;8.50;5.18;;;22.30;99.90;;;;;;4953959;29;20073;-44
2024/04/05 10:15:36;;;;;;;7.72;4.43;;;22.30;99.90;;;;;;4937057;29;20028;-44
2024/04/05 10:18:02;;;;;;;9.30;4.95;;;22.30;99.90;;;;;;4954007;29;20023;-45
2024/04/05 10:20:29;;;;;;;7.43;4.07;;;22.40;99.90;;;;;;4955361;28;20078;-44
2024/04/05 10:23:03;;;;;;;7.32;4.55;;;22.40;99.90;;;;;;4957954;29;20452;-44
2024/04/05 10:25:29;;;;;;;8.82;5.15;;;22.40;99.90;;;;;;4957632;29;20110;-46
2024/04/05 10:27:55;;;;;;;8.25;5.20;;;22.40;99.90;;;;;;4975437;28;20125;-44
2024/04/05 10:30:21;;;;;;;8.85;5.47;;;22.50;99.90;;;;;;4976936;28;20039;-44
2024/04/05 10:32:58;;;;;;;9.45;5.15;;;22.50;99.90;;;;;;4959532;28;20493;-45
2024/04/05 10:35:24;;;;;;;9.93;4.77;;;22.50;99.90;;;;;;4976832;28;20062;-45
2024/04/05 10:37:59;;;;;;;7.38;5.22;;;22.50;99.90;;;;;;4959358;28;20740;-44
2024/04/05 10:40:25;;;;;;;8.07;4.93;;;22.50;99.90;;;;;;4976693;28;20033;-45
2024/04/05 10:42:52;;;;;;;8.02;4.75;;;22.50;99.90;;;;;;4959458;28;20034;-45
2024/04/05 10:45:22;;;;;;;9.48;4.80;;;22.60;99.90;;;;;;4959368;28;20049;-44
2024/04/05 10:47:52;;;;;;;8.68;5.47;;;22.60;99.90;;;;;;4976518;28;20051;-45
2024/04/05 10:50:21;;;;;;;6.63;4.72;;;22.60;99.90;;;;;;4976531;28;20126;-44
2024/04/05 10:52:56;;;;;;;9.75;4.57;;;22.60;99.90;;;;;;4976525;28;20386;-45
2024/04/05 10:55:22;;;;;;;9.40;5.28;;;22.60;99.90;;;;;;4976452;28;20026;-44
2024/04/05 10:57:48;;;;;;;8.75;5.32;;;22.60;99.90;;;;;;4959188;28;20023;-45
2024/04/05 11:00:14;;;;;;;7.60;4.70;;;22.70;99.90;;;;;;4976570;28;20038;-45
2024/04/05 11:02:42;;;;;;;8.68;5.28;;;22.70;99.90;;;;;;4976514;28;20460;-45
2024/04/05 11:05:13;;;;;;;8.60;5.18;;;22.70;99.90;;;;;;4976484;28;20027;-44
2024/04/05 11:07:40;;;;;;;9.23;5.68;;;22.70;99.90;;;;;;4976592;28;20398;-44
2024/04/05 11:10:17;;;;;;;8.88;5.40;;;22.70;99.90;;;;;;4958829;28;20102;-44
2024/04/05 11:12:46;;;;;;;13.97;5.97;;;22.80;99.90;;;;;;4959145;28;20042;-45
2024/04/05 11:15:12;;;;;;;11.75;5.53;;;22.80;99.90;;;;;;4976495;28;20033;-44
2024/04/05 11:17:39;;;;;;;9.88;6.38;;;22.80;99.90;;;;;;4958653;28;20031;-44
2024/04/05 11:20:14;;;;;;;11.35;5.55;;;22.80;99.90;;;;;;4958848;28;20498;-44
2024/04/05 11:22:43;;;;;;;8.57;5.22;;;22.80;99.90;;;;;;4976145;28;20097;-44
2024/04/05 11:25:20;;;;;;;11.20;5.88;;;22.90;99.90;;;;;;4975829;28;20026;-45
2024/04/05 11:27:46;;;;;;;11.02;6.15;;;22.90;99.90;;;;;;4958456;28;20113;-45
2024/04/05 11:30:12;;;;;;;11.85;6.28;;;22.90;99.90;;;;;;4976043;28;20114;-44
2024/04/05 11:32:40;;;;;;;10.38;6.60;;;22.90;99.90;;;;;;4957947;28;20046;-44
2024/04/05 11:35:07;;;;;;;10.13;6.30;;;22.90;99.90;;;;;;4975656;28;20018;-44
2024/04/05 11:37:32;;;;;;;9.77;6.53;;;22.90;99.90;;;;;;4975968;28;20386;-44
2024/04/05 11:39:59;;;;;;;11.13;6.80;;;22.90;99.90;;;;;;4975838;28;20094;-44
2024/04/05 11:42:25;;;;;;;12.75;6.65;;;23.00;99.90;;;;;;4975698;28;20095;-43
2024/04/05 11:44:51;;;;;;;7.90;5.63;;;23.00;99.90;;;;;;4975556;28;20023;-44
2024/04/05 11:47:21;;;;;;;13.18;6.30;;;23.00;99.90;;;;;;4975601;28;20026;-44
2024/04/05 11:49:52;;;;;;;11.50;6.82;;;23.00;99.90;;;;;;4975664;28;20372;-44
2024/04/05 11:52:18;;;;;;;13.68;6.55;;;23.00;99.90;;;;;;4975670;28;20023;-43
2024/04/05 11:54:44;;;;;;;11.90;6.22;;;23.10;99.90;;;;;;4958221;28;20023;-44
2024/04/05 11:57:14;;;;;;;10.10;6.22;;;23.10;99.90;;;;;;4975421;28;20743;-44
2024/04/05 11:59:49;;;;;;;9.70;6.20;;;23.10;99.90;;;;;;4958092;28;20372;-44
2024/04/05 12:02:14;;;;;;;9.95;6.40;;;23.10;99.90;;;;;;4975411;28;20047;-44
2024/04/05 12:04:40;;;;;;;10.65;6.50;;;23.10;99.90;;;;;;4975281;28;20424;-44
2024/04/05 12:07:09;;;;;;;9.13;5.85;;;23.20;99.90;;;;;;4975308;28;20023;-44
2024/04/05 12:09:36;;;;;;;10.68;6.50;;;23.20;99.90;;;;;;4975148;28;20081;-44
2024/04/05 12:12:04;;;;;;;10.52;6.82;;;23.20;99.90;;;;;;4975005;28;20027;-45
2024/04/05 12:14:33;;;;;;;11.20;6.07;;;23.20;99.90;;;;;;4975099;28;20027;-44
2024/04/05 12:17:03;;;;;;;10.95;6.28;;;23.20;99.90;;;;;;4958326;28;20049;-44
2024/04/05 12:19:29;;;;;;;16.27;6.93;;;23.20;99.90;;;;;;4974954;28;20109;-43
2024/04/05 12:21:55;;;;;;;9.98;6.13;;;23.30;99.90;;;;;;4975053;28;20055;-44
2024/04/05 12:24:21;;;;;;;11.32;6.20;;;23.30;99.90;;;;;;4974885;28;20073;-44
2024/04/05 12:26:47;;;;;;;9.98;5.70;;;23.30;99.90;;;;;;4975341;28;20423;-44
2024/04/05 12:29:13;;;;;;;9.40;5.88;;;23.30;99.90;;;;;;4974929;28;20391;-44
2024/04/05 12:31:40;;;;;;;9.07;5.90;;;23.30;99.90;;;;;;4957614;28;20106;-44
2024/04/05 12:34:06;;;;;;;11.80;5.55;;;23.30;99.90;;;;;;4974728;28;20050;-44
2024/04/05 12:36:33;;;;;;;11.75;6.47;;;23.40;99.90;;;;;;4974526;28;20035;-44
2024/04/05 12:39:06;;;;;;;10.35;5.88;;;23.30;99.90;;;;;;4974622;28;20143;-44
2024/04/05 12:41:35;;;;;;;11.20;6.85;;;23.40;99.90;;;;;;4974667;28;20034;-44
2024/04/05 12:44:03;;;;;;;9.95;5.68;;;23.40;99.90;;;;;;4973749;28;20055;-44
2024/04/05 12:46:29;;;;;;;;;;;23.40;99.90;;;;;;4974983;28;20023;-44